Time;durP1;ratioP1;P1;durP2;ratioP2;P2;SDS_P1;SDS_P2;PMS_P1;PMS_P2;Temp;Humidity;BMP_temperature;BMP_pressure;BME280_temperature;BME280_humidity;BME280_pressure;Samples;Min_cycle;Max_cycle;Signal;HPM_P1;HPM_P2
2022/03/27 00:00:56;;;;;;;33.00;15.27;;;;;;;4.64;65.54;96938.19;4990082;28;25012;-73
2022/03/27 00:03:23;;;;;;;26.63;14.85;;;;;;;4.71;65.10;96941.44;4991003;28;25090;-73
2022/03/27 00:05:49;;;;;;;20.33;14.00;;;;;;;4.58;66.12;96949.41;4990501;28;24436;-72
2022/03/27 00:08:17;;;;;;;25.90;14.93;;;;;;;4.49;67.18;96943.63;4990898;28;24600;-73
2022/03/27 00:13:27;;;;;;;21.38;14.18;;;;;;;4.51;66.55;96947.84;4989176;28;24515;-73
2022/03/27 00:15:54;;;;;;;19.85;14.00;;;;;;;4.57;65.89;96942.59;4990603;28;24432;-73
2022/03/27 00:18:21;;;;;;;25.10;14.40;;;;;;;4.54;66.41;96940.09;4990303;28;24441;-73
2022/03/27 00:20:48;;;;;;;20.40;13.70;;;;;;;4.53;66.30;96940.97;4990316;28;24596;-73
2022/03/27 00:23:14;;;;;;;25.13;14.97;;;;;;;4.72;64.97;96941.44;4990438;28;24441;-73
2022/03/27 00:25:43;;;;;;;31.90;13.73;;;;;;;4.49;65.34;96939.34;4990236;28;24524;-73
2022/03/27 00:28:09;;;;;;;25.35;15.48;;;;;;;4.24;67.26;96938.13;4990625;28;24464;-73
2022/03/27 00:30:36;;;;;;;22.42;14.57;;;;;;;4.07;67.79;96936.72;4990045;28;24519;-73
2022/03/27 00:33:02;;;;;;;21.95;14.60;;;;;;;3.96;67.57;96930.94;4990665;28;24440;-73
2022/03/27 00:35:29;;;;;;;23.50;14.10;;;;;;;4.02;67.49;96938.53;4990248;28;25001;-72
2022/03/27 00:37:55;;;;;;;20.85;14.80;;;;;;;3.96;67.79;96935.22;4990158;28;25056;-73
2022/03/27 00:40:22;;;;;;;24.63;13.80;;;;;;;3.90;67.24;96936.19;4990162;28;24437;-73
2022/03/27 00:42:49;;;;;;;24.10;13.60;;;;;;;3.85;67.62;96928.56;4990129;28;25011;-73
2022/03/27 00:45:16;;;;;;;32.85;15.07;;;;;;;3.82;67.98;96927.78;4989985;28;24850;-73
2022/03/27 00:47:44;;;;;;;21.88;14.77;;;;;;;3.67;68.72;96926.34;4990196;28;24441;-73
2022/03/27 00:50:11;;;;;;;18.00;13.55;;;;;;;3.57;69.59;96923.09;4990118;28;24440;-73
2022/03/27 00:52:37;;;;;;;18.38;14.00;;;;;;;3.57;70.13;96922.25;4990080;28;24799;-73
2022/03/27 00:55:04;;;;;;;26.20;14.30;;;;;;;3.60;70.63;96923.03;4990256;28;24565;-73
2022/03/27 00:57:31;;;;;;;23.10;14.15;;;;;;;3.63;70.21;96923.00;4989370;28;24444;-73
2022/03/27 00:59:58;;;;;;;21.85;14.40;;;;;;;3.69;70.78;96913.50;4987203;28;24433;-73
2022/03/27 01:02:26;;;;;;;21.23;15.02;;;;;;;3.69;70.41;96918.63;4990210;28;24440;-73
2022/03/27 01:04:56;;;;;;;23.60;14.75;;;;;;;3.75;68.88;96919.38;4989069;28;24440;-73
2022/03/27 01:07:22;;;;;;;22.75;13.60;;;;;;;3.69;69.27;96921.19;4990015;28;24982;-73
2022/03/27 01:09:48;;;;;;;25.38;14.68;;;;;;;3.62;70.05;96913.59;4989520;28;24433;-73
2022/03/27 01:12:23;;;;;;;24.63;14.23;;;;;;;3.54;69.53;96915.44;4989586;28;24493;-73
2022/03/27 01:14:51;;;;;;;24.13;14.88;;;;;;;3.57;69.93;96914.56;4987434;28;24441;-73
2022/03/27 01:17:21;;;;;;;24.00;13.65;;;;;;;3.54;70.29;96912.88;4989966;28;24440;-73
2022/03/27 01:19:49;;;;;;;22.42;14.43;;;;;;;3.35;71.84;96911.50;4990200;28;25026;-73
2022/03/27 01:22:19;;;;;;;22.17;13.63;;;;;;;3.30;72.17;96906.47;4990524;28;24800;-73
2022/03/27 01:24:46;;;;;;;23.20;14.52;;;;;;;3.26;72.59;96909.06;4990201;28;24542;-73
2022/03/27 01:27:13;;;;;;;24.40;14.55;;;;;;;3.29;71.84;96903.91;4990160;28;24495;-73
2022/03/27 01:29:39;;;;;;;22.08;14.75;;;;;;;3.32;72.48;96907.28;4989689;28;24464;-73
2022/03/27 01:32:10;;;;;;;24.50;14.13;;;;;;;3.38;72.16;96894.38;4990102;28;24461;-72
2022/03/27 01:34:36;;;;;;;27.55;14.75;;;;;;;3.46;71.57;96899.38;4993986;28;24448;-72
2022/03/27 01:37:06;;;;;;;23.27;14.40;;;;;;;3.56;70.64;96900.03;4992933;28;24436;-73
2022/03/27 01:39:35;;;;;;;22.58;14.85;;;;;;;3.52;71.07;96896.72;4979243;28;24445;-72
2022/03/27 01:42:01;;;;;;;20.80;15.20;;;;;;;3.53;71.26;96892.44;4993389;28;24986;-71
2022/03/27 01:44:28;;;;;;;26.67;14.73;;;;;;;3.56;70.68;96898.34;4992838;28;24455;-71
2022/03/27 01:46:55;;;;;;;21.15;14.10;;;;;;;3.57;70.35;96896.63;4993239;28;24443;-71
2022/03/27 01:49:22;;;;;;;21.95;14.18;;;;;;;3.54;71.63;96889.00;4992981;28;24541;-71
2022/03/27 01:51:48;;;;;;;19.67;14.80;;;;;;;3.50;71.46;96890.75;4993061;28;25036;-71
2022/03/27 01:54:16;;;;;;;22.40;15.03;;;;;;;3.40;71.39;96895.19;4992850;28;24432;-71
2022/03/27 01:56:43;;;;;;;26.45;15.10;;;;;;;3.26;71.36;96907.34;4992579;28;24499;-71
2022/03/27 01:59:10;;;;;;;21.73;14.05;;;;;;;3.17;70.43;96904.13;5018878;23;24479;-74
2022/03/27 02:01:37;;;;;;;19.63;13.80;;;;;;;3.05;71.23;96900.03;5006514;28;24435;-73
2022/03/27 02:04:05;;;;;;;23.85;14.07;;;;;;;2.97;71.83;96897.59;5013039;28;24809;-73
2022/03/27 02:06:32;;;;;;;21.27;13.55;;;;;;;2.94;72.26;96900.19;5012329;28;24486;-73
2022/03/27 02:09:00;;;;;;;25.17;14.90;;;;;;;2.76;72.57;96896.16;5007936;28;24483;-74
2022/03/27 02:11:26;;;;;;;23.05;14.00;;;;;;;2.74;73.72;96897.06;4994135;28;25057;-73
2022/03/27 02:13:54;;;;;;;21.92;13.82;;;;;;;2.70;74.30;96898.81;4997888;28;24849;-73
2022/03/27 02:16:20;;;;;;;19.80;13.18;;;;;;;2.74;74.89;96894.50;5008364;28;24441;-73
2022/03/27 02:18:47;;;;;;;19.00;13.17;;;;;;;2.78;75.20;96899.56;4995400;28;24978;-74
2022/03/27 02:21:13;;;;;;;22.23;12.80;;;;;;;2.82;74.25;96898.66;4997150;28;24553;-73
2022/03/27 02:23:40;;;;;;;26.27;14.20;;;;;;;2.87;73.86;96901.13;5004368;28;24440;-73
2022/03/27 02:26:07;;;;;;;19.05;13.80;;;;;;;3.00;73.70;96900.06;5008159;28;24531;-74
2022/03/27 02:28:33;;;;;;;16.15;13.57;;;;;;;2.97;73.68;96897.59;5003961;28;24858;-74
2022/03/27 02:31:01;;;;;;;20.00;14.50;;;;;;;2.95;74.69;96901.03;4994645;28;24444;-73
2022/03/27 02:33:29;;;;;;;19.42;14.13;;;;;;;2.97;74.29;96892.47;4998353;28;25024;-73
2022/03/27 02:35:55;;;;;;;24.17;14.27;;;;;;;2.99;74.15;96902.66;4993902;28;24441;-73
2022/03/27 02:38:21;;;;;;;24.05;14.32;;;;;;;2.92;75.14;96902.75;5009316;28;24567;-73
2022/03/27 02:40:48;;;;;;;19.08;13.48;;;;;;;2.95;75.66;96904.44;5007279;28;24445;-75
2022/03/27 02:43:15;;;;;;;24.50;13.45;;;;;;;2.95;74.99;96906.16;4994831;28;25025;-73
2022/03/27 02:45:41;;;;;;;22.70;14.02;;;;;;;2.96;74.75;96902.72;5006696;28;24806;-73
2022/03/27 02:48:09;;;;;;;27.13;14.50;;;;;;;2.97;75.01;96899.31;5010909;28;24428;-73
2022/03/27 02:50:37;;;;;;;24.30;14.13;;;;;;;3.01;74.04;96903.50;5006016;28;24523;-73
2022/03/27 02:53:04;;;;;;;24.40;14.48;;;;;;;2.92;72.63;96899.34;5007141;28;24452;-73
2022/03/27 02:55:30;;;;;;;20.80;14.50;;;;;;;2.89;74.18;96907.06;4997670;28;25043;-74
2022/03/27 02:57:57;;;;;;;22.95;14.57;;;;;;;2.79;74.83;96900.41;5002861;28;24465;-74
2022/03/27 03:00:25;;;;;;;17.05;13.50;;;;;;;2.74;74.76;96900.44;4998116;28;24476;-74
2022/03/27 03:02:53;;;;;;;21.63;13.60;;;;;;;2.70;74.94;96898.81;5010198;28;24443;-73
2022/03/27 03:05:22;;;;;;;19.30;12.63;;;;;;;2.68;74.58;96900.56;4999027;28;24488;-74
2022/03/27 03:07:49;;;;;;;23.60;14.32;;;;;;;2.81;73.18;96894.38;4998997;28;24965;-74
2022/03/27 03:10:16;;;;;;;21.20;13.95;;;;;;;2.68;71.71;96898.00;4995191;28;24452;-74
2022/03/27 03:12:43;;;;;;;25.98;14.43;;;;;;;2.31;75.27;96897.63;4996757;28;24449;-73
2022/03/27 03:15:10;;;;;;;20.60;13.48;;;;;;;2.22;75.65;96893.47;4992265;28;24436;-74
2022/03/27 03:17:37;;;;;;;23.55;14.55;;;;;;;2.11;76.47;96893.59;4993850;28;24437;-74
2022/03/27 03:20:04;;;;;;;20.03;13.73;;;;;;;2.01;77.08;96886.91;5004685;28;24534;-73
2022/03/27 03:22:32;;;;;;;18.95;14.27;;;;;;;2.04;76.53;96891.13;5007911;28;25079;-73
2022/03/27 03:24:59;;;;;;;27.17;14.90;;;;;;;2.04;76.32;96894.53;5008798;28;24439;-74
2022/03/27 03:27:25;;;;;;;25.98;16.15;;;;;;;1.87;79.88;96898.97;5008332;28;24447;-73
2022/03/27 03:29:52;;;;;;;32.83;15.45;;;;;;;1.82;79.36;96893.94;4995848;28;24452;-73
2022/03/27 03:32:19;;;;;;;20.85;14.40;;;;;;;1.79;81.27;96895.66;4997942;28;24495;-75
2022/03/27 03:34:46;;;;;;;22.15;15.45;;;;;;;1.83;81.02;96897.31;4992747;28;24981;-74
2022/03/27 03:37:12;;;;;;;22.75;14.30;;;;;;;1.89;80.67;96899.78;4999458;28;24440;-74
2022/03/27 03:39:40;;;;;;;24.45;14.63;;;;;;;1.91;80.86;96898.91;4996789;28;24443;-74
2022/03/27 03:42:07;;;;;;;26.63;15.70;;;;;;;1.99;80.47;96895.44;5009080;28;24483;-74
2022/03/27 03:44:33;;;;;;;25.07;13.77;;;;;;;2.08;80.43;96895.34;5000206;28;24521;-75
2022/03/27 03:47:00;;;;;;;22.65;13.68;;;;;;;2.20;79.32;96900.31;4992747;28;24495;-74
2022/03/27 03:49:26;;;;;;;23.60;14.43;;;;;;;2.07;79.38;96897.03;5006979;28;24491;-73
2022/03/27 03:51:53;;;;;;;23.45;14.02;;;;;;;2.02;80.30;96890.31;5004262;28;24866;-74
2022/03/27 03:54:20;;;;;;;20.05;13.18;;;;;;;2.08;80.06;96895.34;5001442;28;24471;-73
2022/03/27 03:56:47;;;;;;;19.60;14.37;;;;;;;2.26;80.31;96897.66;4998731;28;24527;-73
2022/03/27 03:59:15;;;;;;;23.38;13.85;;;;;;;2.18;79.04;96897.75;4993742;28;24441;-74
2022/03/27 04:01:42;;;;;;;19.23;12.95;;;;;;;2.13;78.02;96899.53;5004547;28;24996;-74
2022/03/27 04:04:08;;;;;;;23.50;14.25;;;;;;;2.10;77.33;96896.16;5008746;28;24447;-74
2022/03/27 04:06:34;;;;;;;25.85;14.90;;;;;;;1.93;78.02;96898.94;5007947;28;24806;-74
2022/03/27 04:09:01;;;;;;;22.10;14.40;;;;;;;1.96;78.67;96893.75;4994838;28;25016;-74
2022/03/27 04:11:28;;;;;;;17.05;13.50;;;;;;;2.01;78.57;96899.69;4992085;28;24437;-75
2022/03/27 04:13:57;;;;;;;19.50;14.57;;;;;;;2.04;77.52;96898.78;5001828;28;24437;-73
2022/03/27 04:16:24;;;;;;;17.40;13.77;;;;;;;2.03;77.97;96897.94;5009253;28;24439;-74
2022/03/27 04:18:50;;;;;;;22.63;15.18;;;;;;;1.90;77.72;96899.78;5005177;28;24996;-73
2022/03/27 04:21:17;;;;;;;21.33;14.88;;;;;;;1.98;77.70;96898.88;5000649;28;24825;-73
2022/03/27 04:23:43;;;;;;;21.58;14.32;;;;;;;1.90;77.61;96893.84;4997755;28;24440;-74
2022/03/27 04:26:09;;;;;;;24.58;14.13;;;;;;;1.83;78.03;96893.06;4994625;28;24429;-73
2022/03/27 04:28:36;;;;;;;21.98;14.85;;;;;;;1.81;79.05;96899.03;5001821;28;24445;-74
2022/03/27 04:31:04;;;;;;;27.90;14.93;;;;;;;1.75;80.16;96894.00;5006142;28;24843;-74
2022/03/27 04:33:30;;;;;;;26.88;15.32;;;;;;;1.70;81.66;96894.03;4998344;28;24444;-73
2022/03/27 04:35:57;;;;;;;26.65;15.65;;;;;;;1.62;81.50;96898.38;5002025;28;24463;-74
2022/03/27 04:38:23;;;;;;;23.85;15.35;;;;;;;1.73;80.01;96900.81;5001495;28;25005;-73
2022/03/27 04:40:50;;;;;;;29.33;15.50;;;;;;;1.64;79.09;96892.41;5008529;28;24536;-73
2022/03/27 04:43:17;;;;;;;31.25;16.77;;;;;;;1.49;80.13;96891.72;5001710;28;25033;-74
2022/03/27 04:45:43;;;;;;;20.90;15.10;;;;;;;1.45;80.91;96891.72;4993822;28;24827;-73
2022/03/27 04:48:11;;;;;;;20.73;15.25;;;;;;;1.45;81.65;96890.88;5006762;28;24483;-74
2022/03/27 04:50:38;;;;;;;22.50;15.43;;;;;;;1.48;80.30;96895.09;4991417;28;24486;-74
2022/03/27 04:53:04;;;;;;;30.50;17.27;;;;;;;1.60;80.52;96898.41;5005957;28;24822;-74
2022/03/27 04:55:31;;;;;;;22.70;15.80;;;;;;;1.53;80.37;96890.81;5003654;28;24437;-75
2022/03/27 04:57:57;;;;;;;23.92;15.73;;;;;;;1.49;81.08;96897.66;4998007;28;24491;-74
2022/03/27 05:00:24;;;;;;;24.65;15.52;;;;;;;1.43;80.78;96890.03;5001166;28;24470;-73
2022/03/27 05:02:50;;;;;;;22.65;15.38;;;;;;;1.48;81.74;96898.50;5008353;28;24432;-74
2022/03/27 05:05:18;;;;;;;21.25;15.50;;;;;;;1.47;81.18;96899.34;5006834;28;24444;-75
2022/03/27 05:07:45;;;;;;;24.02;15.80;;;;;;;1.44;82.21;96902.78;4993026;28;24433;-74
2022/03/27 05:10:14;;;;;;;23.85;15.25;;;;;;;1.45;82.48;96899.38;5002443;28;24799;-74
2022/03/27 05:12:41;;;;;;;22.50;15.00;;;;;;;1.45;82.39;96896.84;5002712;28;24453;-73
2022/03/27 05:15:09;;;;;;;19.58;14.48;;;;;;;1.50;82.04;96895.94;5000165;28;26014;-74
2022/03/27 05:17:46;;;;;;;20.90;13.93;;;;;;;1.36;83.06;96893.50;5005543;28;24808;-73
2022/03/27 05:20:13;;;;;;;24.73;14.38;;;;;;;1.03;88.77;96895.47;5004817;28;24499;-73
2022/03/27 05:22:43;;;;;;;22.50;12.75;;;;;;;1.21;88.16;96897.03;5002285;28;24531;-73
2022/03/27 05:25:11;;;;;;;18.80;12.52;;;;;;;1.33;87.60;96899.47;5002182;28;24535;-73
2022/03/27 05:27:43;;;;;;;17.35;12.48;;;;;;;1.45;86.06;96903.66;5011773;28;24471;-73
2022/03/27 05:30:10;;;;;;;16.33;12.90;;;;;;;1.53;85.59;96904.41;5002697;28;24441;-73
2022/03/27 05:32:36;;;;;;;22.17;13.43;;;;;;;1.62;85.03;96909.44;5008541;28;24985;-73
2022/03/27 05:35:03;;;;;;;16.90;12.50;;;;;;;1.74;85.42;96899.94;5004145;28;24433;-74
2022/03/27 05:37:31;;;;;;;17.88;12.43;;;;;;;1.83;84.76;96899.88;5005189;28;24812;-75
2022/03/27 05:39:58;;;;;;;18.00;11.57;;;;;;;1.90;84.64;96910.00;5003679;28;24455;-73
2022/03/27 05:42:25;;;;;;;22.37;12.53;;;;;;;1.98;84.32;96901.41;4997735;28;24488;-74
2022/03/27 05:44:51;;;;;;;18.17;12.40;;;;;;;2.04;84.08;96912.44;5008440;28;25061;-73
2022/03/27 05:47:18;;;;;;;22.03;13.33;;;;;;;2.13;83.06;96909.75;4995629;28;24865;-73
2022/03/27 05:49:44;;;;;;;18.03;12.30;;;;;;;2.23;81.78;96920.72;5003237;28;24988;-73
2022/03/27 05:52:14;;;;;;;19.83;13.30;;;;;;;2.17;81.64;96915.69;4996177;28;24456;-74
2022/03/27 05:54:41;;;;;;;19.30;13.18;;;;;;;2.07;82.18;96926.84;5008149;28;24451;-74
2022/03/27 05:57:09;;;;;;;19.35;14.00;;;;;;;2.07;82.99;96925.16;5003203;28;24444;-74
2022/03/27 05:59:35;;;;;;;19.27;15.02;;;;;;;2.13;82.85;96919.97;5004603;28;24994;-74
2022/03/27 06:02:01;;;;;;;21.48;14.82;;;;;;;2.09;84.22;96920.88;4994767;28;24460;-74
2022/03/27 06:04:29;;;;;;;22.23;14.55;;;;;;;2.24;84.23;96924.97;4994957;28;25004;-73
2022/03/27 06:06:55;;;;;;;17.75;13.75;;;;;;;2.35;84.55;96927.41;4996087;28;24787;-74
2022/03/27 06:09:22;;;;;;;34.55;15.18;;;;;;;2.52;82.91;96929.75;5007181;28;24511;-74
2022/03/27 06:11:49;;;;;;;24.65;15.30;;;;;;;2.60;83.47;96930.50;4996300;28;24441;-73
2022/03/27 06:14:16;;;;;;;23.77;16.33;;;;;;;2.60;83.26;96933.06;5006054;28;24495;-74
2022/03/27 06:16:43;;;;;;;28.27;14.98;;;;;;;2.54;84.05;96933.13;4997582;28;24437;-74
2022/03/27 06:19:09;;;;;;;21.98;15.35;;;;;;;2.49;85.88;96940.88;4994040;28;24448;-72
2022/03/27 06:21:36;;;;;;;20.75;15.43;;;;;;;2.49;86.01;96934.91;5002197;28;24441;-74
2022/03/27 06:24:02;;;;;;;23.88;16.05;;;;;;;2.58;85.35;96938.19;4998849;28;24433;-74
2022/03/27 06:26:29;;;;;;;25.92;16.52;;;;;;;2.63;86.42;96933.88;5001743;28;24496;-74
2022/03/27 06:28:56;;;;;;;32.45;16.70;;;;;;;2.85;85.67;96938.69;4995667;28;24475;-72
2022/03/27 06:31:23;;;;;;;30.88;17.58;;;;;;;3.02;85.56;96935.91;5005392;28;24441;-71
2022/03/27 06:33:50;;;;;;;24.02;15.57;;;;;;;3.19;85.90;96941.63;5005925;28;24457;-74
2022/03/27 06:36:17;;;;;;;24.73;17.33;;;;;;;3.40;85.85;96945.56;4997500;28;24444;-73
2022/03/27 06:38:44;;;;;;;25.80;17.23;;;;;;;3.68;84.52;96937.44;4999442;28;24503;-73
2022/03/27 06:41:10;;;;;;;20.85;16.45;;;;;;;3.90;84.20;96937.91;4998853;28;24439;-74
2022/03/27 06:43:37;;;;;;;23.35;15.90;;;;;;;4.13;81.96;96931.47;4998592;28;24439;-74
2022/03/27 06:46:05;;;;;;;23.88;15.63;;;;;;;4.39;81.35;96942.97;5001433;28;24986;-73
2022/03/27 06:48:33;;;;;;;24.00;15.02;;;;;;;4.65;80.21;96945.00;5003184;28;24447;-73
2022/03/27 06:51:00;;;;;;;23.65;15.07;;;;;;;4.88;80.30;96935.97;5003219;28;24444;-73
2022/03/27 06:53:26;;;;;;;23.03;14.43;;;;;;;5.10;79.58;96940.59;5002791;28;24824;-73
2022/03/27 06:55:53;;;;;;;23.00;15.90;;;;;;;5.28;79.74;96933.34;5003616;28;24445;-73
2022/03/27 06:58:19;;;;;;;22.40;14.98;;;;;;;5.51;79.15;96943.06;5002421;28;24445;-73
2022/03/27 07:03:30;;;;;;;23.48;15.00;;;;;;;5.78;71.79;96944.13;4995806;28;24535;-73
2022/03/27 07:05:58;;;;;;;19.33;15.25;;;;;;;5.38;72.53;96945.09;5002703;28;24436;-73
2022/03/27 07:08:25;;;;;;;22.92;14.20;;;;;;;5.27;71.83;96944.50;5000896;28;24448;-73
2022/03/27 07:10:52;;;;;;;21.85;14.90;;;;;;;5.12;73.15;96949.97;5002133;28;24440;-72
2022/03/27 07:13:20;;;;;;;25.00;15.40;;;;;;;5.04;73.52;96940.75;5001081;28;24486;-73
2022/03/27 07:15:49;;;;;;;25.55;14.75;;;;;;;5.06;73.93;96943.25;4992651;28;24521;-73
2022/03/27 07:18:17;;;;;;;28.00;15.27;;;;;;;5.04;74.02;96943.31;4996850;28;24464;-75
2022/03/27 07:20:46;;;;;;;22.55;14.80;;;;;;;5.13;73.73;96933.72;5011366;28;24468;-74
2022/03/27 07:23:15;;;;;;;19.85;13.10;;;;;;;5.54;74.37;96938.72;5001662;28;24437;-75
2022/03/27 07:25:44;;;;;;;17.88;13.77;;;;;;;6.10;72.55;96945.91;5001231;28;24494;-75
2022/03/27 07:28:11;;;;;;;20.13;13.45;;;;;;;6.57;70.62;96938.63;5001553;28;24436;-74
2022/03/27 07:30:40;;;;;;;22.25;14.63;;;;;;;6.78;68.40;96942.31;5010905;28;24421;-75
2022/03/27 07:33:07;;;;;;;23.58;14.77;;;;;;;6.84;68.42;96942.13;4997515;28;24835;-75
2022/03/27 07:35:34;;;;;;;23.58;13.80;;;;;;;6.97;68.32;96948.63;4991825;28;24436;-75
2022/03/27 07:38:02;;;;;;;27.15;14.35;;;;;;;7.45;67.43;96949.72;4996254;28;24451;-74
2022/03/27 07:40:30;;;;;;;23.02;13.82;;;;;;;7.90;65.48;96944.00;5010916;28;24977;-74
2022/03/27 07:42:57;;;;;;;26.95;15.35;;;;;;;8.09;62.78;96941.63;4998956;28;24436;-75
2022/03/27 07:45:26;;;;;;;24.92;14.23;;;;;;;8.46;62.98;96936.06;5007349;28;24443;-75
2022/03/27 07:47:55;;;;;;;18.58;13.50;;;;;;;8.73;59.94;96936.78;5011293;28;24520;-74
2022/03/27 07:50:23;;;;;;;21.67;15.65;;;;;;;8.34;61.51;96939.84;5009755;28;24491;-78
2022/03/27 07:52:50;;;;;;;24.35;15.68;;;;;;;8.35;61.92;96936.41;5003874;28;24452;-75
2022/03/27 07:55:18;;;;;;;21.85;14.70;;;;;;;8.93;61.79;96939.47;5011389;28;20761;-74
2022/03/27 07:57:47;;;;;;;27.07;15.67;;;;;;;9.35;60.98;96940.47;5011146;28;24448;-75
2022/03/27 08:00:16;;;;;;;22.13;14.70;;;;;;;9.74;60.34;96939.78;5056373;23;20838;-70
2022/03/27 08:02:43;;;;;;;24.88;15.18;;;;;;;9.76;58.23;96938.81;5050599;28;20731;-72
2022/03/27 08:05:11;;;;;;;24.60;14.50;;;;;;;10.08;59.41;96936.63;5050315;28;20782;-72
2022/03/27 08:07:38;;;;;;;20.75;14.55;;;;;;;10.46;58.97;96935.03;5049934;28;21324;-71
2022/03/27 08:10:05;;;;;;;25.42;14.85;;;;;;;10.80;57.57;96928.34;5021007;28;20834;-74
2022/03/27 08:12:32;;;;;;;28.17;15.35;;;;;;;11.20;55.00;96936.88;5030056;28;24443;-73
2022/03/27 08:15:00;;;;;;;23.20;14.50;;;;;;;11.47;53.43;96932.16;5029789;28;24474;-74
2022/03/27 08:17:26;;;;;;;23.05;14.52;;;;;;;11.27;53.62;96933.94;5029775;28;24793;-72
2022/03/27 08:19:53;;;;;;;21.85;13.63;;;;;;;11.72;52.98;96929.22;5028820;28;25011;-72
2022/03/27 08:22:20;;;;;;;24.25;14.32;;;;;;;11.75;52.18;96932.47;5030074;28;24539;-72
2022/03/27 08:24:47;;;;;;;29.13;14.73;;;;;;;12.15;52.11;96922.75;5029788;28;24467;-72
2022/03/27 08:27:14;;;;;;;41.97;15.65;;;;;;;11.97;50.63;96928.88;5030161;28;24440;-72
2022/03/27 08:29:41;;;;;;;30.58;15.52;;;;;;;11.73;50.82;96936.09;5029967;28;24450;-71
2022/03/27 08:32:12;;;;;;;26.42;14.85;;;;;;;11.79;50.90;96930.56;5029073;28;24976;-73
2022/03/27 08:34:40;;;;;;;28.17;15.52;;;;;;;11.66;51.13;96929.50;5029163;28;25057;-72
2022/03/27 08:37:09;;;;;;;23.90;15.13;;;;;;;11.78;52.10;96926.31;5022562;28;24981;-72
2022/03/27 08:39:38;;;;;;;25.05;15.00;;;;;;;12.24;51.00;96924.91;5028187;28;24446;-72
2022/03/27 08:42:06;;;;;;;20.42;14.00;;;;;;;12.56;51.74;96927.56;5028656;28;25042;-72
2022/03/27 08:44:34;;;;;;;23.65;14.75;;;;;;;13.02;52.37;96927.75;5033899;28;24950;-72
2022/03/27 08:47:05;;;;;;;22.42;14.60;;;;;;;13.02;49.16;96938.16;5034039;28;24786;-72
2022/03/27 08:49:41;;;;;;;22.75;14.95;;;;;;;13.10;50.81;96933.38;5032786;28;24450;-73
2022/03/27 08:52:11;;;;;;;25.45;13.68;;;;;;;13.84;49.73;96929.31;5033566;28;24439;-72
2022/03/27 08:54:43;;;;;;;24.10;15.10;;;;;;;14.00;46.33;96925.72;5031722;28;24801;-72
2022/03/27 08:57:22;;;;;;;26.88;15.40;;;;;;;14.44;48.00;96929.25;5029423;28;24464;-72
2022/03/27 08:59:53;;;;;;;22.10;15.02;;;;;;;14.98;46.46;96937.25;5032767;28;24570;-72
2022/03/27 09:02:22;;;;;;;23.08;13.70;;;;;;;15.26;46.15;96941.63;5033226;28;24524;-72
2022/03/27 09:04:53;;;;;;;24.95;14.60;;;;;;;15.47;45.67;96935.03;5025270;28;25080;-72
2022/03/27 09:07:20;;;;;;;23.67;13.98;;;;;;;15.22;43.86;96938.34;5033065;28;24440;-71
2022/03/27 09:09:46;;;;;;;25.35;13.10;;;;;;;15.70;48.43;96928.38;5029027;28;24523;-72
2022/03/27 09:12:16;;;;;;;22.70;13.20;;;;;;;15.90;44.93;96936.66;5022875;28;21288;-72
2022/03/27 09:14:43;;;;;;;22.50;12.40;;;;;;;15.93;45.12;96929.47;5027074;28;24475;-73
2022/03/27 09:17:10;;;;;;;31.13;12.68;;;;;;;16.00;43.04;96937.75;5033658;28;24466;-73
2022/03/27 09:19:39;;;;;;;23.17;12.38;;;;;;;15.92;41.11;96937.41;5032390;28;24794;-73
2022/03/27 09:22:14;;;;;;;19.20;12.73;;;;;;;15.70;41.23;96943.19;5033707;28;24430;-72
2022/03/27 09:24:42;;;;;;;29.17;14.20;;;;;;;15.92;44.32;96935.63;5032480;28;24435;-74
2022/03/27 09:27:08;;;;;;;18.70;12.50;;;;;;;15.95;41.36;96945.91;5023311;28;24491;-73
2022/03/27 09:30:07;;;;;;;26.00;13.23;;;;;;;15.94;39.78;96940.75;5032479;28;24451;-74
2022/03/27 09:32:36;;;;;;;25.83;12.75;;;;;;;16.02;41.78;96943.72;4940863;29;25018;-72
2022/03/27 09:35:05;;;;;;;20.50;13.13;;;;;;;16.13;44.41;96936.00;5015822;28;24976;-73
2022/03/27 09:37:35;;;;;;;21.95;13.10;;;;;;;16.18;42.76;96939.16;5033393;28;24553;-73
2022/03/27 09:40:03;;;;;;;28.10;14.73;;;;;;;16.27;43.89;96929.00;5032197;28;25003;-72
2022/03/27 09:42:30;;;;;;;20.97;12.50;;;;;;;16.37;39.78;96928.28;5032967;28;24470;-73
2022/03/27 09:45:11;;;;;;;23.33;12.98;;;;;;;16.45;43.11;96933.81;5032301;28;24424;-73
2022/03/27 09:47:37;;;;;;;23.92;13.98;;;;;;;16.49;41.20;96931.84;5032806;28;24515;-74
2022/03/27 09:50:04;;;;;;;27.47;13.73;;;;;;;16.49;40.99;96933.63;5032521;28;24448;-72
2022/03/27 09:52:33;;;;;;;21.75;12.60;;;;;;;16.29;37.63;96929.75;5016664;28;24442;-74
2022/03/27 09:55:01;;;;;;;22.75;13.98;;;;;;;16.21;39.59;96927.66;5032480;28;24451;-70
2022/03/27 09:57:29;;;;;;;23.08;12.57;;;;;;;15.97;40.05;96930.94;5018150;28;24807;-74
2022/03/27 09:59:57;;;;;;;20.58;13.52;;;;;;;16.06;41.67;96926.06;5029696;28;24440;-73
2022/03/27 10:02:27;;;;;;;22.65;14.07;;;;;;;16.24;40.89;96921.38;5030928;28;24432;-73
2022/03/27 10:04:58;;;;;;;23.77;12.82;;;;;;;16.34;40.31;96920.66;5027301;28;24434;-74
2022/03/27 10:07:25;;;;;;;19.63;13.43;;;;;;;16.53;41.17;96927.25;5030794;28;25097;-75
2022/03/27 10:09:54;;;;;;;26.63;13.77;;;;;;;16.61;41.34;96923.19;5031458;28;24498;-75
2022/03/27 10:12:27;;;;;;;28.15;14.23;;;;;;;16.58;41.64;96919.94;5027333;28;24446;-74
2022/03/27 10:14:57;;;;;;;22.00;13.48;;;;;;;16.75;40.32;96914.38;5028426;28;24456;-75
2022/03/27 10:17:26;;;;;;;25.80;14.30;;;;;;;16.97;41.19;96911.13;5032630;28;24535;-73
2022/03/27 10:19:56;;;;;;;28.13;14.50;;;;;;;16.94;38.44;96913.94;5032084;28;25054;-74
2022/03/27 10:22:25;;;;;;;31.50;15.10;;;;;;;16.96;39.92;96909.44;5028537;28;24432;-75
2022/03/27 10:24:57;;;;;;;20.10;12.27;;;;;;;17.09;38.93;96901.56;5019511;28;24439;-75
2022/03/27 10:27:24;;;;;;;19.58;11.27;;;;;;;17.06;38.26;96896.56;5029377;28;24439;-74
2022/03/27 10:29:51;;;;;;;28.65;12.60;;;;;;;17.27;38.49;96887.16;5031713;28;24801;-75
2022/03/27 10:32:17;;;;;;;25.05;13.68;;;;;;;17.03;36.37;96889.75;5032089;28;24817;-74
2022/03/27 10:34:55;;;;;;;21.73;13.45;;;;;;;17.23;41.82;96890.13;5032247;28;24448;-75
2022/03/27 10:37:30;;;;;;;20.75;13.80;;;;;;;17.54;40.13;96891.34;5022330;28;24806;-75
2022/03/27 10:40:06;;;;;;;21.15;11.00;;;;;;;17.52;35.30;96891.47;5027518;28;24439;-75
2022/03/27 10:42:39;;;;;;;19.98;12.30;;;;;;;17.56;35.85;96889.47;5024941;28;24440;-75
2022/03/27 10:45:09;;;;;;;25.30;11.93;;;;;;;17.56;38.50;96887.66;5030423;28;24440;-73
2022/03/27 10:47:35;;;;;;;23.23;11.32;;;;;;;17.43;33.80;96884.28;5031420;28;24432;-75
2022/03/27 10:50:22;;;;;;;29.90;12.10;;;;;;;17.33;35.78;96884.09;5028893;28;24444;-75
2022/03/27 10:53:11;;;;;;;28.58;11.80;;;;;;;17.35;37.47;96889.22;5030537;28;24519;-75
2022/03/27 10:55:42;;;;;;;21.80;11.27;;;;;;;17.43;35.58;96884.28;5026416;28;24872;-75
2022/03/27 10:58:38;;;;;;;22.73;10.80;;;;;;;17.45;35.79;96879.75;5030852;28;25023;-75
2022/03/27 11:01:08;;;;;;;16.65;10.07;;;;;;;17.50;36.03;96882.03;5031423;28;24443;-75
2022/03/27 11:03:52;;;;;;;15.75;10.15;;;;;;;17.45;31.91;96874.53;5030240;28;24871;-73
2022/03/27 11:06:31;;;;;;;21.88;11.57;;;;;;;17.39;33.51;96877.56;5030088;28;24464;-74
2022/03/27 11:08:58;;;;;;;19.25;11.75;;;;;;;17.36;35.71;96875.19;5031336;28;24432;-75
2022/03/27 11:12:02;;;;;;;21.92;11.50;;;;;;;17.24;34.68;96870.84;5030865;28;24439;-75
2022/03/27 11:15:07;;;;;;;19.52;10.60;;;;;;;17.30;34.08;96878.25;5029976;28;25007;-75
2022/03/27 11:17:52;;;;;;;19.50;10.67;;;;;;;17.12;31.26;96867.31;5030924;28;24463;-75
2022/03/27 11:20:53;;;;;;;18.45;10.40;;;;;;;17.13;34.64;96861.13;5031070;28;24475;-75
2022/03/27 11:23:35;;;;;;;18.43;10.50;;;;;;;17.17;34.80;96871.28;5030167;28;24525;-75
2022/03/27 11:26:03;;;;;;;20.30;11.50;;;;;;;17.32;36.58;96871.13;5016107;28;24525;-73
2022/03/27 11:28:47;;;;;;;18.35;10.32;;;;;;;17.27;33.96;96860.97;5022371;28;24432;-76
2022/03/27 11:31:22;;;;;;;17.97;10.47;;;;;;;17.31;34.34;96862.41;5030779;28;24595;-74
2022/03/27 11:34:18;;;;;;;17.23;9.93;;;;;;;17.49;35.76;96862.03;5030429;28;24454;-74